createdAt,value
2023-03-04T00:00:11.164Z,2.23
2023-03-04T00:01:14.224Z,2.22
2023-03-04T00:02:11.415Z,2.14
2023-03-04T00:03:11.331Z,2.23
2023-03-04T00:04:11.216Z,2.14
2023-03-04T00:05:11.169Z,2.05
2023-03-04T00:06:11.179Z,2.04
2023-03-04T00:07:11.205Z,2.03
2023-03-04T00:08:11.176Z,2.01
2023-03-04T00:09:11.242Z,2.05
2023-03-04T00:10:11.245Z,2.08
2023-03-04T00:11:11.193Z,2.1
2023-03-04T00:12:14.016Z,2.14
2023-03-04T00:13:11.329Z,2.12
2023-03-04T00:14:11.236Z,2.05
2023-03-04T00:15:11.190Z,2.18
2023-03-04T00:16:11.381Z,2.14
2023-03-04T00:17:11.217Z,2.18
2023-03-04T00:18:11.181Z,2.15
2023-03-04T00:19:11.205Z,2.14
2023-03-04T00:20:11.199Z,2.01
2023-03-04T00:21:11.209Z,2.1
2023-03-04T00:22:11.220Z,1.64
2023-03-04T00:23:14.799Z,1.64
2023-03-04T00:24:11.262Z,1.61
2023-03-04T00:25:13.971Z,1.67
2023-03-04T00:26:11.196Z,1.57
2023-03-04T00:27:11.231Z,1.49
2023-03-04T00:28:11.222Z,1.43
2023-03-04T00:29:11.241Z,1.39
2023-03-04T00:30:11.234Z,1.48
2023-03-04T00:31:11.215Z,1.42
2023-03-04T00:32:11.711Z,1.43
2023-03-04T00:33:11.224Z,1.52
2023-03-04T00:34:14.318Z,1.45
2023-03-04T00:35:11.202Z,1.42
2023-03-04T00:36:11.210Z,1.42
2023-03-04T00:37:11.217Z,1.58
2023-03-04T00:38:11.233Z,1.58
2023-03-04T00:39:11.228Z,1.53
2023-03-04T00:40:11.259Z,1.57
2023-03-04T00:41:11.266Z,1.53
2023-03-04T00:42:11.243Z,1.43
2023-03-04T00:43:11.309Z,1.43
2023-03-04T00:44:11.320Z,1.39
2023-03-04T00:45:14.345Z,1.28
2023-03-04T00:46:11.480Z,1.27
2023-03-04T00:47:11.284Z,1.28
2023-03-04T00:48:11.278Z,1.3
2023-03-04T00:49:11.278Z,1.28
2023-03-04T00:50:11.224Z,1.25
2023-03-04T00:51:11.237Z,1.31
2023-03-04T00:52:11.278Z,1.3
2023-03-04T00:53:11.246Z,1.21
2023-03-04T00:54:11.236Z,1.24
2023-03-04T00:55:11.258Z,1.3
2023-03-04T00:56:14.041Z,1.21
2023-03-04T00:57:11.286Z,1.16
2023-03-04T00:58:12.327Z,1.16
2023-03-04T00:59:11.266Z,1.2
2023-03-04T01:00:11.319Z,1.2
2023-03-04T01:01:11.464Z,1.12
2023-03-04T01:02:11.612Z,1.12
2023-03-04T01:03:11.258Z,1.06
2023-03-04T01:04:11.256Z,1.12
2023-03-04T01:05:11.277Z,1.04
2023-03-04T01:07:14.111Z,1.14
2023-03-04T01:08:11.251Z,1.06
2023-03-04T01:09:11.243Z,1.14
2023-03-04T01:10:11.284Z,1.13
2023-03-04T01:11:11.297Z,1.07
2023-03-04T01:12:11.265Z,1.12
2023-03-04T01:13:11.302Z,1.09
2023-03-04T01:14:11.334Z,1.1
2023-03-04T01:15:11.268Z,1.1
2023-03-04T01:16:11.345Z,1.04
2023-03-04T01:17:11.313Z,0.95
2023-03-04T01:18:11.588Z,0.92
2023-03-04T01:19:11.308Z,1
2023-03-04T01:20:11.306Z,1.06
2023-03-04T01:21:11.298Z,1.07
2023-03-04T01:22:11.296Z,1.07
2023-03-04T01:23:14.387Z,1.03
2023-03-04T01:24:11.287Z,1.02
2023-03-04T01:25:11.291Z,0.96
2023-03-04T01:26:11.299Z,1.04
2023-03-04T01:27:11.305Z,0.91
2023-03-04T01:28:11.313Z,0.91
2023-03-04T01:29:11.341Z,0.86
2023-03-04T01:30:11.301Z,1.06
2023-03-04T01:31:11.441Z,0.89
2023-03-04T01:32:11.616Z,0.94
2023-03-04T01:33:11.314Z,0.96
2023-03-04T01:34:11.300Z,1.09
2023-03-04T01:35:11.301Z,1.06
2023-03-04T01:36:11.319Z,1.04
2023-03-04T01:37:11.290Z,1.1
2023-03-04T01:38:11.364Z,1.09
2023-03-04T01:39:14.115Z,0.95
2023-03-04T01:40:11.308Z,1.02
2023-03-04T01:41:11.333Z,1.03
2023-03-04T01:42:11.308Z,1.07
2023-03-04T01:43:11.314Z,1.02
2023-03-04T01:44:11.340Z,1.09
2023-03-04T01:45:11.396Z,1.1
2023-03-04T01:46:11.451Z,1.14
2023-03-04T01:47:11.325Z,1.1
2023-03-04T01:48:11.353Z,1.03
2023-03-04T01:49:11.540Z,1.13
2023-03-04T01:50:14.150Z,1.2
2023-03-04T01:51:11.351Z,1.04
2023-03-04T01:52:11.327Z,1.09
2023-03-04T01:53:11.337Z,1.1
2023-03-04T01:54:11.351Z,1.27
2023-03-04T01:55:11.627Z,1.16
2023-03-04T01:56:11.353Z,1.16
2023-03-04T01:57:11.334Z,1.18
2023-03-04T01:58:11.336Z,1.14
2023-03-04T01:59:11.357Z,1.18
2023-03-04T02:00:12.387Z,1.16
2023-03-04T02:01:14.467Z,1.12
2023-03-04T02:02:11.354Z,1.06
2023-03-04T02:03:11.396Z,1.12
2023-03-04T02:04:11.488Z,1.21
2023-03-04T02:05:11.394Z,1.21
2023-03-04T02:06:14.016Z,1.16
2023-03-04T02:07:11.345Z,1.18
2023-03-04T02:08:11.380Z,1.3
2023-03-04T02:09:11.377Z,1.27
2023-03-04T02:10:11.405Z,1.32
2023-03-04T02:11:11.445Z,1.32
2023-03-04T02:12:14.446Z,1.4
2023-03-04T02:13:11.404Z,1.36
2023-03-04T02:14:11.442Z,1.3
2023-03-04T02:15:11.377Z,1.39
2023-03-04T02:16:11.629Z,1.24
2023-03-04T02:17:14.027Z,1.31
2023-03-04T02:18:11.375Z,1.39
2023-03-04T02:19:11.386Z,1.32
2023-03-04T02:20:11.408Z,1.38
2023-03-04T02:21:11.450Z,1.28
2023-03-04T02:22:11.392Z,1.43
2023-03-04T02:23:11.385Z,1.31
2023-03-04T02:24:11.426Z,1.42
2023-03-04T02:25:11.407Z,1.27
2023-03-04T02:26:11.415Z,1.27
2023-03-04T02:27:11.393Z,1.32
2023-03-04T02:28:14.185Z,1.36
2023-03-04T02:29:11.395Z,1.34
2023-03-04T02:30:11.429Z,1.28
2023-03-04T02:31:11.525Z,1.24
2023-03-04T02:32:11.502Z,1.25
2023-03-04T02:33:11.464Z,1.32
2023-03-04T02:34:11.401Z,1.2
2023-03-04T02:35:11.465Z,1.31
2023-03-04T02:36:11.468Z,1.31
2023-03-04T02:37:11.460Z,1.39
2023-03-04T02:38:11.422Z,1.34
2023-03-04T02:39:14.730Z,1.22
2023-03-04T02:40:11.461Z,1.24
2023-03-04T02:41:11.408Z,1.2
2023-03-04T02:42:11.446Z,1.21
2023-03-04T02:43:11.429Z,1.38
2023-03-04T02:44:11.425Z,1.32
2023-03-04T02:45:11.442Z,1.42
2023-03-04T02:46:11.565Z,1.31
2023-03-04T02:47:11.488Z,1.28
2023-03-04T02:48:11.566Z,1.3
2023-03-04T02:49:11.434Z,1.27
2023-03-04T02:50:14.823Z,1.31
2023-03-04T02:51:11.430Z,1.21
2023-03-04T02:52:11.477Z,1.22
2023-03-04T02:53:11.451Z,1.21
2023-03-04T02:54:11.445Z,1.13
2023-03-04T02:55:11.455Z,1.2
2023-03-04T02:56:11.421Z,1.16
2023-03-04T02:57:11.481Z,1.04
2023-03-04T02:58:11.586Z,1.1
2023-03-04T02:59:11.429Z,1.02
2023-03-04T03:00:11.485Z,1.06
2023-03-04T03:01:12.573Z,1.04
2023-03-04T03:02:11.583Z,0.99
2023-03-04T03:03:11.909Z,0.96
2023-03-04T03:04:11.479Z,0.88
2023-03-04T03:05:11.493Z,0.78
2023-03-04T03:06:11.486Z,0.94
2023-03-04T03:07:11.480Z,0.86
2023-03-04T03:08:11.497Z,0.76
2023-03-04T03:09:11.488Z,0.76
2023-03-04T03:10:11.494Z,0.82
2023-03-04T03:11:13.530Z,0.86
2023-03-04T03:12:14.387Z,0.76
2023-03-04T03:13:11.477Z,0.76
2023-03-04T03:14:11.451Z,0.78
2023-03-04T03:15:11.480Z,0.7
2023-03-04T03:16:12.635Z,0.7
2023-03-04T03:17:11.515Z,0.55
2023-03-04T03:18:11.486Z,0.66
2023-03-04T03:19:11.478Z,0.55
2023-03-04T03:20:11.506Z,0.52
2023-03-04T03:21:11.485Z,0.44
2023-03-04T03:22:11.488Z,0.39
2023-03-04T03:23:14.576Z,0.42
2023-03-04T03:24:11.537Z,0.47
2023-03-04T03:25:11.518Z,0.49
2023-03-04T03:26:11.488Z,0.48
2023-03-04T03:27:11.483Z,0.51
2023-03-04T03:28:11.498Z,0.51
2023-03-04T03:29:11.537Z,0.45
2023-03-04T03:30:11.498Z,0.37
2023-03-04T03:31:11.637Z,0.34
2023-03-04T03:32:11.637Z,0.23
2023-03-04T03:33:11.485Z,0.3
2023-03-04T03:34:14.602Z,0.36
2023-03-04T03:35:11.556Z,0.33
2023-03-04T03:36:11.718Z,0.39
2023-03-04T03:37:11.523Z,0.4
2023-03-04T03:38:11.529Z,0.37
2023-03-04T03:39:11.556Z,0.42
2023-03-04T03:40:11.521Z,0.48
2023-03-04T03:41:11.532Z,0.33
2023-03-04T03:42:11.508Z,0.48
2023-03-04T03:43:11.532Z,0.49
2023-03-04T03:44:11.505Z,0.56
2023-03-04T03:45:11.600Z,0.63
2023-03-04T03:46:11.786Z,0.58
2023-03-04T03:47:11.506Z,0.66
2023-03-04T03:48:11.521Z,0.48
2023-03-04T03:49:11.537Z,0.55
2023-03-04T03:50:11.784Z,0.58
2023-03-04T03:51:11.512Z,0.63
2023-03-04T03:52:11.523Z,0.61
2023-03-04T03:53:11.555Z,0.66
2023-03-04T03:54:11.511Z,0.59
2023-03-04T03:55:11.592Z,0.71
2023-03-04T03:56:11.517Z,0.71
2023-03-04T03:57:11.547Z,0.71
2023-03-04T03:58:11.529Z,0.77
2023-03-04T03:59:11.565Z,0.77
2023-03-04T04:00:11.585Z,0.85
2023-03-04T04:01:11.623Z,0.71
2023-03-04T04:02:12.000Z,0.81
2023-03-04T04:03:11.807Z,0.77
2023-03-04T04:04:11.529Z,0.85
2023-03-04T04:05:11.570Z,0.73
2023-03-04T04:06:14.321Z,0.81
2023-03-04T04:07:11.581Z,0.82
2023-03-04T04:08:11.559Z,0.81
2023-03-04T04:09:11.589Z,0.76
2023-03-04T04:10:11.637Z,0.77
2023-03-04T04:11:11.570Z,0.85
2023-03-04T04:12:11.591Z,0.74
2023-03-04T04:13:11.608Z,0.81
2023-03-04T04:14:11.553Z,0.84
2023-03-04T04:15:11.611Z,0.85
2023-03-04T04:16:11.756Z,0.84
2023-03-04T04:17:14.585Z,0.84
2023-03-04T04:18:11.602Z,0.82
2023-03-04T04:19:11.552Z,0.84
2023-03-04T04:20:11.661Z,0.86
2023-03-04T04:21:11.587Z,0.89
2023-03-04T04:22:11.579Z,0.85
2023-03-04T04:23:11.604Z,0.73
2023-03-04T04:24:11.573Z,0.84
2023-03-04T04:25:11.648Z,0.73
2023-03-04T04:26:11.600Z,0.81
2023-03-04T04:27:11.600Z,0.89
2023-03-04T04:28:14.748Z,0.81
2023-03-04T04:29:11.610Z,0.77
2023-03-04T04:30:11.638Z,0.85
2023-03-04T04:31:11.957Z,0.96
2023-03-04T04:32:11.649Z,0.82
2023-03-04T04:33:14.453Z,0.95
2023-03-04T04:34:11.652Z,0.86
2023-03-04T04:35:11.609Z,0.82
2023-03-04T04:36:11.570Z,0.89
2023-03-04T04:37:11.580Z,0.94
2023-03-04T04:38:11.609Z,0.78
2023-03-04T04:39:14.452Z,0.86
2023-03-04T04:40:11.636Z,1.02
2023-03-04T04:41:11.604Z,0.89
2023-03-04T04:42:11.597Z,0.95
2023-03-04T04:43:11.673Z,0.88
2023-03-04T04:44:12.670Z,0.88
2023-03-04T04:45:11.657Z,0.96
2023-03-04T04:46:11.729Z,1.04
2023-03-04T04:47:11.643Z,0.99
2023-03-04T04:48:11.621Z,0.92
2023-03-04T04:49:11.617Z,1
2023-03-04T04:50:14.685Z,1.02
2023-03-04T04:51:11.704Z,1.06
2023-03-04T04:52:11.642Z,1.09
2023-03-04T04:53:11.608Z,1.12
2023-03-04T04:54:11.632Z,1.1
2023-03-04T04:55:17.215Z,1.1
2023-03-04T04:56:11.601Z,1.12
2023-03-04T04:57:11.708Z,1.16
2023-03-04T04:58:11.624Z,1.21
2023-03-04T04:59:11.683Z,1.13
2023-03-04T05:00:11.622Z,1.03
2023-03-04T05:01:20.923Z,1.12
2023-03-04T05:02:11.641Z,1.07
2023-03-04T05:03:11.798Z,1.03
2023-03-04T05:04:11.657Z,1.1
2023-03-04T05:05:11.668Z,1.1
2023-03-04T05:06:14.346Z,1.13
2023-03-04T05:07:11.635Z,1.16
2023-03-04T05:08:11.645Z,1.14
2023-03-04T05:09:11.665Z,1.16
2023-03-04T05:10:11.663Z,1.1
2023-03-04T05:11:11.630Z,1.06
2023-03-04T05:12:11.660Z,1.04
2023-03-04T05:13:11.682Z,1.04
2023-03-04T05:14:11.670Z,1.07
2023-03-04T05:15:11.690Z,1.14
2023-03-04T05:16:11.959Z,1.07
2023-03-04T05:17:14.769Z,0.94
2023-03-04T05:18:11.647Z,1.03
2023-03-04T05:19:11.705Z,1.07
2023-03-04T05:20:11.735Z,1.14
2023-03-04T05:21:11.687Z,1.16
2023-03-04T05:22:11.663Z,1.2
2023-03-04T05:23:11.771Z,1.21
2023-03-04T05:24:11.663Z,1.14
2023-03-04T05:25:11.679Z,1.21
2023-03-04T05:26:11.666Z,1.2
2023-03-04T05:27:11.666Z,1.22
2023-03-04T05:28:14.765Z,1.12
2023-03-04T05:29:11.721Z,1.07
2023-03-04T05:30:11.743Z,0.95
2023-03-04T05:31:11.864Z,1
2023-03-04T05:32:11.872Z,1.03
2023-03-04T05:33:11.708Z,1.02
2023-03-04T05:34:11.676Z,1.02
2023-03-04T05:35:11.733Z,1
2023-03-04T05:36:11.729Z,1.12
2023-03-04T05:37:11.688Z,1.1
2023-03-04T05:38:11.690Z,1.12
2023-03-04T05:39:14.439Z,1.12
2023-03-04T05:40:11.766Z,1.07
2023-03-04T05:41:11.715Z,1.2
2023-03-04T05:42:11.672Z,1.22
2023-03-04T05:43:11.703Z,1.25
2023-03-04T05:44:11.705Z,1.31
2023-03-04T05:45:11.740Z,1.31
2023-03-04T05:46:11.830Z,1.31
2023-03-04T05:47:11.724Z,1.18
2023-03-04T05:48:11.740Z,1.22
2023-03-04T05:49:11.734Z,1.27
2023-03-04T05:50:14.470Z,1.24
2023-03-04T05:51:11.717Z,1.28
2023-03-04T05:52:11.712Z,1.36
2023-03-04T05:53:11.705Z,1.18
2023-03-04T05:54:11.712Z,1.18
2023-03-04T05:55:11.721Z,1.1
2023-03-04T05:56:11.734Z,1.18
2023-03-04T05:57:11.735Z,1.21
2023-03-04T05:58:11.712Z,1.27
2023-03-04T05:59:11.741Z,1.3
2023-03-04T06:00:11.807Z,1.22
2023-03-04T06:01:14.620Z,1.24
2023-03-04T06:02:11.756Z,1.4
2023-03-04T06:03:11.782Z,1.31
2023-03-04T06:04:12.157Z,1.3
2023-03-04T06:05:11.788Z,1.27
2023-03-04T06:06:11.771Z,1.28
2023-03-04T06:07:11.741Z,1.34
2023-03-04T06:08:11.722Z,1.3
2023-03-04T06:09:11.768Z,1.36
2023-03-04T06:10:11.737Z,1.36
2023-03-04T06:11:11.772Z,1.42
2023-03-04T06:12:11.747Z,1.39
2023-03-04T06:13:11.760Z,1.27
2023-03-04T06:14:11.909Z,1.3
2023-03-04T06:15:11.780Z,1.34
2023-03-04T06:16:12.187Z,1.34
2023-03-04T06:17:11.780Z,1.28
2023-03-04T06:18:11.772Z,1.3
2023-03-04T06:19:11.781Z,1.09
2023-03-04T06:20:11.794Z,1.24
2023-03-04T06:21:11.811Z,1.14
2023-03-04T06:22:11.756Z,1.21
2023-03-04T06:23:11.807Z,1.25
2023-03-04T06:24:11.807Z,1.3
2023-03-04T06:25:11.754Z,1.32
2023-03-04T06:26:11.758Z,1.4
2023-03-04T06:27:11.789Z,1.39
2023-03-04T06:28:11.759Z,1.28
2023-03-04T06:29:11.790Z,1.25
2023-03-04T06:30:11.850Z,1.38
2023-03-04T06:31:11.905Z,1.36
2023-03-04T06:32:11.933Z,1.32
2023-03-04T06:33:14.653Z,1.31
2023-03-04T06:34:11.759Z,1.31
2023-03-04T06:35:11.790Z,1.39
2023-03-04T06:36:11.766Z,1.4
2023-03-04T06:37:11.815Z,1.46
2023-03-04T06:38:11.764Z,1.27
2023-03-04T06:39:11.762Z,1.36
2023-03-04T06:40:11.807Z,1.3
2023-03-04T06:41:11.833Z,1.25
2023-03-04T06:42:11.777Z,1.4
2023-03-04T06:43:11.786Z,1.45
2023-03-04T06:44:15.028Z,1.46
2023-03-04T06:45:11.814Z,1.5
2023-03-04T06:46:11.834Z,1.66
2023-03-04T06:47:11.802Z,1.64
2023-03-04T06:48:11.816Z,1.5
2023-03-04T06:49:11.872Z,1.46
2023-03-04T06:50:11.866Z,1.48
2023-03-04T06:51:11.807Z,1.48
2023-03-04T06:52:11.800Z,1.56
2023-03-04T06:53:11.835Z,1.61
2023-03-04T06:54:11.818Z,1.6
2023-03-04T06:55:14.894Z,1.63
2023-03-04T06:56:11.828Z,1.58
2023-03-04T06:57:11.841Z,1.61
2023-03-04T06:58:11.811Z,1.68
2023-03-04T06:59:11.863Z,1.68
2023-03-04T07:00:14.749Z,1.64
2023-03-04T07:01:12.027Z,1.76
2023-03-04T07:02:11.820Z,1.64
2023-03-04T07:03:11.817Z,1.58
2023-03-04T07:04:11.962Z,1.71
2023-03-04T07:05:11.884Z,1.84
2023-03-04T07:06:14.635Z,1.75
2023-03-04T07:07:11.853Z,1.64
2023-03-04T07:08:11.834Z,1.7
2023-03-04T07:09:11.851Z,1.67
2023-03-04T07:10:13.550Z,1.76
2023-03-04T07:11:12.918Z,1.68
2023-03-04T07:12:11.864Z,1.74
2023-03-04T07:13:11.833Z,1.66
2023-03-04T07:14:11.837Z,1.61
2023-03-04T07:15:11.840Z,1.66
2023-03-04T07:16:12.046Z,1.76
2023-03-04T07:17:14.663Z,1.71
2023-03-04T07:18:11.843Z,1.84
2023-03-04T07:19:11.863Z,1.85
2023-03-04T07:20:11.883Z,1.89
2023-03-04T07:21:11.958Z,1.86
2023-03-04T07:22:14.954Z,1.71
2023-03-04T07:23:11.889Z,1.63
2023-03-04T07:24:11.864Z,1.75
2023-03-04T07:25:11.904Z,1.85
2023-03-04T07:26:11.933Z,2
2023-03-04T07:27:11.868Z,2.1
2023-03-04T07:28:14.703Z,2.08
2023-03-04T07:29:11.877Z,2.08
2023-03-04T07:30:11.852Z,2.03
2023-03-04T07:31:11.881Z,1.92
2023-03-04T07:32:12.414Z,2.07
2023-03-04T07:33:15.032Z,2.12
2023-03-04T07:34:11.928Z,2.08
2023-03-04T07:35:11.889Z,2.07
2023-03-04T07:36:11.900Z,2.12
2023-03-04T07:37:11.915Z,2.1
2023-03-04T07:38:11.917Z,2.18
2023-03-04T07:39:11.868Z,2.19
2023-03-04T07:40:11.893Z,2.18
2023-03-04T07:41:11.920Z,2.21
2023-03-04T07:42:11.936Z,2.16
2023-03-04T07:43:11.869Z,2.25
2023-03-04T07:44:15.684Z,2.28
2023-03-04T07:45:11.905Z,2.32
2023-03-04T07:46:12.228Z,2.22
2023-03-04T07:47:12.767Z,2.3
2023-03-04T07:48:11.920Z,2.36
2023-03-04T07:49:11.894Z,2.44
2023-03-04T07:50:12.043Z,2.47
2023-03-04T07:51:11.928Z,2.47
2023-03-04T07:52:11.892Z,2.5
2023-03-04T07:53:11.912Z,2.41
2023-03-04T07:54:11.946Z,2.51
2023-03-04T07:55:13.037Z,2.54
2023-03-04T07:56:11.981Z,2.5
2023-03-04T07:57:11.926Z,2.51
2023-03-04T07:58:11.940Z,2.47
2023-03-04T07:59:11.934Z,2.62
2023-03-04T08:00:11.948Z,2.61
2023-03-04T08:01:11.951Z,2.68
2023-03-04T08:02:11.993Z,2.65
2023-03-04T08:03:11.934Z,2.69
2023-03-04T08:04:12.250Z,2.75
2023-03-04T08:05:11.971Z,2.72
2023-03-04T08:06:13.656Z,2.65
2023-03-04T08:07:11.930Z,2.61
2023-03-04T08:08:11.940Z,2.58
2023-03-04T08:09:11.992Z,2.69
2023-03-04T08:10:11.954Z,2.57
2023-03-04T08:11:11.944Z,2.64
2023-03-04T08:12:11.942Z,2.72
2023-03-04T08:13:11.950Z,2.69
2023-03-04T08:14:11.965Z,2.65
2023-03-04T08:15:11.939Z,2.73
2023-03-04T08:16:12.216Z,2.69
2023-03-04T08:17:15.052Z,2.82
2023-03-04T08:18:12.003Z,2.83
2023-03-04T08:19:12.470Z,2.64
2023-03-04T08:20:11.942Z,2.68
2023-03-04T08:21:11.981Z,2.72
2023-03-04T08:22:11.942Z,2.8
2023-03-04T08:23:11.938Z,2.72
2023-03-04T08:24:12.057Z,2.72
2023-03-04T08:25:12.008Z,2.69
2023-03-04T08:26:12.023Z,2.75
2023-03-04T08:27:11.940Z,2.79
2023-03-04T08:28:15.004Z,2.7
2023-03-04T08:29:11.833Z,2.58
2023-03-04T08:30:11.946Z,2.68
2023-03-04T08:31:12.382Z,2.8
2023-03-04T08:32:12.283Z,2.88
2023-03-04T08:33:11.970Z,2.93
2023-03-04T08:34:11.976Z,2.9
2023-03-04T08:35:11.841Z,2.8
2023-03-04T08:36:11.974Z,2.91
2023-03-04T08:37:11.962Z,2.73
2023-03-04T08:38:11.997Z,2.88
2023-03-04T08:39:11.968Z,2.88
2023-03-04T08:40:11.991Z,2.8
2023-03-04T08:41:12.035Z,2.94
2023-03-04T08:42:12.001Z,3.01
2023-03-04T08:43:12.085Z,2.98
2023-03-04T08:44:12.000Z,3.01
2023-03-04T08:45:11.987Z,3.03
2023-03-04T08:46:12.208Z,3.01
2023-03-04T08:47:11.975Z,2.97
2023-03-04T08:48:12.065Z,3.01
2023-03-04T08:49:11.993Z,3
2023-03-04T08:50:12.000Z,2.94
2023-03-04T08:51:12.046Z,3.05
2023-03-04T08:52:11.999Z,3
2023-03-04T08:53:12.045Z,2.95
2023-03-04T08:54:12.026Z,2.94
2023-03-04T08:55:13.031Z,3.08
2023-03-04T08:56:12.068Z,3.16
2023-03-04T08:57:12.054Z,3.11
2023-03-04T08:58:12.080Z,3.24
2023-03-04T08:59:12.033Z,3.3
2023-03-04T09:00:14.818Z,3.31
2023-03-04T09:01:12.088Z,3.21
2023-03-04T09:02:12.117Z,3.36
2023-03-04T09:03:12.033Z,3.52
2023-03-04T09:04:12.032Z,3.45
2023-03-04T09:05:12.080Z,3.45
2023-03-04T09:06:12.142Z,3.3
2023-03-04T09:07:12.034Z,3.36
2023-03-04T09:08:12.031Z,3.48
2023-03-04T09:09:12.051Z,3.5
2023-03-04T09:10:12.027Z,3.52
2023-03-04T09:11:13.390Z,3.63
2023-03-04T09:12:12.071Z,3.55
2023-03-04T09:13:12.074Z,3.56
2023-03-04T09:14:12.063Z,3.63
2023-03-04T09:15:16.139Z,3.59
2023-03-04T09:16:12.270Z,3.5
2023-03-04T09:17:12.012Z,3.64
2023-03-04T09:18:12.049Z,3.58
2023-03-04T09:19:12.033Z,3.58
2023-03-04T09:20:12.032Z,3.58
2023-03-04T09:21:12.057Z,3.66
2023-03-04T09:22:13.123Z,3.66
2023-03-04T09:23:12.134Z,3.67
2023-03-04T09:24:12.042Z,3.71
2023-03-04T09:25:17.289Z,3.86
2023-03-04T09:26:12.044Z,3.86
2023-03-04T09:27:15.185Z,3.68
2023-03-04T09:28:12.055Z,3.66
2023-03-04T09:29:12.084Z,3.82
2023-03-04T09:30:12.115Z,3.85
2023-03-04T09:31:12.177Z,3.76
2023-03-04T09:32:12.268Z,3.85
2023-03-04T09:33:15.168Z,3.84
2023-03-04T09:34:12.059Z,3.81
2023-03-04T09:35:12.064Z,3.92
2023-03-04T09:36:12.097Z,3.91
2023-03-04T09:37:12.067Z,3.85
2023-03-04T09:38:15.102Z,3.81
2023-03-04T09:39:12.074Z,3.92
2023-03-04T09:40:12.113Z,3.86
2023-03-04T09:41:12.093Z,3.85
2023-03-04T09:42:12.072Z,3.91
2023-03-04T09:43:12.078Z,4.03
2023-03-04T09:44:15.087Z,4.16
2023-03-04T09:45:12.123Z,4.09
2023-03-04T09:46:12.261Z,4.12
2023-03-04T09:47:12.084Z,4.25
2023-03-04T09:48:12.156Z,4.16
2023-03-04T09:49:13.298Z,4.13
2023-03-04T09:50:12.223Z,4.22
2023-03-04T09:51:12.094Z,4.21
2023-03-04T09:52:12.085Z,4.14
2023-03-04T09:53:12.077Z,4.1
2023-03-04T09:54:12.071Z,4.14
2023-03-04T09:55:12.123Z,4.21
2023-03-04T09:56:12.073Z,4.21
2023-03-04T09:57:12.067Z,4.32
2023-03-04T09:58:12.120Z,4.3
2023-03-04T09:59:12.085Z,4.3
2023-03-04T10:00:14.927Z,4.32
2023-03-04T10:01:12.141Z,4.3
2023-03-04T10:02:12.204Z,4.38
2023-03-04T10:03:12.406Z,4.32
2023-03-04T10:04:12.176Z,4.3
2023-03-04T10:05:12.154Z,4.22
2023-03-04T10:06:12.118Z,4.14
2023-03-04T10:07:12.101Z,4.14
2023-03-04T10:08:12.215Z,4.24
2023-03-04T10:09:12.112Z,4.16
2023-03-04T10:10:12.093Z,4.22
2023-03-04T10:11:15.206Z,4.3
2023-03-04T10:12:12.141Z,4.34
2023-03-04T10:13:14.188Z,4.32
2023-03-04T10:14:11.952Z,4.38
2023-03-04T10:15:12.110Z,4.39
2023-03-04T10:16:12.404Z,4.45
2023-03-04T10:17:12.154Z,4.39
2023-03-04T10:18:12.162Z,4.49
2023-03-04T10:19:12.124Z,4.36
2023-03-04T10:20:12.178Z,4.39
2023-03-04T10:21:12.196Z,4.45
2023-03-04T10:22:15.271Z,4.5
2023-03-04T10:23:12.134Z,4.48
2023-03-04T10:24:12.135Z,4.45
2023-03-04T10:25:12.138Z,4.5
2023-03-04T10:26:12.124Z,4.48
2023-03-04T10:27:12.149Z,4.5
2023-03-04T10:28:12.131Z,4.45
2023-03-04T10:29:12.127Z,4.53
2023-03-04T10:30:15.201Z,4.49
2023-03-04T10:31:12.413Z,4.56
2023-03-04T10:32:12.384Z,4.63
2023-03-04T10:33:13.218Z,4.68
2023-03-04T10:34:12.166Z,4.67
2023-03-04T10:35:15.279Z,4.61
2023-03-04T10:36:12.127Z,4.68
2023-03-04T10:37:12.222Z,4.66
2023-03-04T10:38:12.158Z,4.74
2023-03-04T10:39:12.211Z,4.75
2023-03-04T10:40:12.198Z,4.7
2023-03-04T10:41:12.137Z,4.79
2023-03-04T10:42:12.619Z,4.78
2023-03-04T10:43:13.172Z,4.87
2023-03-04T10:44:15.162Z,4.67
2023-03-04T10:45:12.149Z,4.68
2023-03-04T10:46:12.445Z,4.7
2023-03-04T10:47:12.199Z,4.74
2023-03-04T10:48:12.182Z,4.78
2023-03-04T10:49:12.164Z,4.9
2023-03-04T10:50:12.206Z,4.87
2023-03-04T10:51:12.189Z,4.84
2023-03-04T10:52:12.172Z,4.71
2023-03-04T10:53:12.219Z,4.74
2023-03-04T10:54:12.228Z,4.86
2023-03-04T10:55:16.041Z,5
2023-03-04T10:56:12.201Z,4.98
2023-03-04T10:57:12.209Z,5.1
2023-03-04T10:58:12.186Z,4.84
2023-03-04T10:59:12.173Z,4.94
2023-03-04T11:00:12.022Z,4.71
2023-03-04T11:01:12.497Z,4.86
2023-03-04T11:02:12.197Z,5.02
2023-03-04T11:03:12.172Z,5.04
2023-03-04T11:04:12.520Z,4.78
2023-03-04T11:05:12.162Z,4.87
2023-03-04T11:06:12.188Z,4.9
2023-03-04T11:07:12.247Z,4.94
2023-03-04T11:08:12.186Z,4.84
2023-03-04T11:09:12.191Z,4.9
2023-03-04T11:10:12.177Z,4.95
2023-03-04T11:11:12.172Z,5
2023-03-04T11:12:12.205Z,5
2023-03-04T11:13:12.189Z,4.82
2023-03-04T11:14:12.240Z,4.97
2023-03-04T11:15:12.224Z,4.84
2023-03-04T11:16:12.374Z,4.92
2023-03-04T11:17:12.210Z,4.9
2023-03-04T11:18:12.198Z,4.82
2023-03-04T11:19:12.244Z,5
2023-03-04T11:20:12.266Z,4.97
2023-03-04T11:21:12.225Z,5.04
2023-03-04T11:22:12.258Z,4.95
2023-03-04T11:23:12.246Z,4.86
2023-03-04T11:24:35.754Z,4.75
2023-03-04T11:25:12.206Z,4.76
2023-03-04T11:26:12.221Z,4.66
2023-03-04T11:27:15.344Z,4.89
2023-03-04T11:28:14.436Z,4.98
2023-03-04T11:29:12.210Z,4.92
2023-03-04T11:30:12.273Z,4.79
2023-03-04T11:31:12.254Z,4.86
2023-03-04T11:32:12.861Z,4.84
2023-03-04T11:33:12.290Z,4.61
2023-03-04T11:34:15.794Z,4.58
2023-03-04T11:35:12.267Z,4.66
2023-03-04T11:36:12.248Z,4.56
2023-03-04T11:37:12.250Z,4.38
2023-03-04T11:38:15.430Z,4.43
2023-03-04T11:39:12.289Z,4.64
2023-03-04T11:40:12.289Z,4.66
2023-03-04T11:41:12.248Z,4.64
2023-03-04T11:42:12.247Z,4.76
2023-03-04T11:43:12.301Z,4.79
2023-03-04T11:44:12.268Z,4.67
2023-03-04T11:45:33.879Z,4.79
2023-03-04T11:46:12.661Z,4.86
2023-03-04T11:47:12.304Z,4.82
2023-03-04T11:48:12.272Z,4.86
2023-03-04T11:49:15.103Z,4.83
2023-03-04T11:50:12.386Z,4.75
2023-03-04T11:51:15.179Z,4.84
2023-03-04T11:52:12.336Z,4.9
2023-03-04T11:53:12.294Z,4.78
2023-03-04T11:54:15.082Z,4.74
2023-03-04T11:55:12.305Z,4.79
2023-03-04T11:56:12.316Z,4.87
2023-03-04T11:57:15.062Z,4.78
2023-03-04T11:58:12.322Z,4.78
2023-03-04T11:59:12.354Z,4.84
2023-03-04T12:00:15.120Z,4.78
2023-03-04T12:01:12.291Z,4.92
2023-03-04T12:02:12.462Z,4.78
2023-03-04T12:03:15.197Z,4.82
2023-03-04T12:04:12.752Z,4.75
2023-03-04T12:05:15.066Z,4.9
2023-03-04T12:06:12.358Z,4.95
2023-03-04T12:07:12.322Z,4.76
2023-03-04T12:08:12.363Z,4.78
2023-03-04T12:09:12.352Z,4.92
2023-03-04T12:10:12.342Z,4.82
2023-03-04T12:11:15.207Z,4.9
2023-03-04T12:12:12.361Z,4.89
2023-03-04T12:13:12.350Z,5.01
2023-03-04T12:14:12.360Z,5.02
2023-03-04T12:15:12.387Z,5.13
2023-03-04T12:16:16.196Z,5.23
2023-03-04T12:17:12.393Z,5.15
2023-03-04T12:18:12.324Z,5.2
2023-03-04T12:19:12.369Z,5.18
2023-03-04T12:20:12.357Z,5.13
2023-03-04T12:21:12.344Z,5.15
2023-03-04T12:22:12.363Z,5.25
2023-03-04T12:23:12.397Z,5.26
2023-03-04T12:24:12.356Z,5.34
2023-03-04T12:25:12.365Z,5.38
2023-03-04T12:26:12.380Z,5.41
2023-03-04T12:27:14.082Z,5.4
2023-03-04T12:28:12.378Z,5.38
2023-03-04T12:29:12.389Z,5.38
2023-03-04T12:30:12.345Z,5.52
2023-03-04T12:31:12.519Z,5.38
2023-03-04T12:32:12.453Z,5.38
2023-03-04T12:33:12.533Z,5.55
2023-03-04T12:34:12.417Z,5.4
2023-03-04T12:35:12.354Z,5.38
2023-03-04T12:36:12.394Z,5.47
2023-03-04T12:37:15.772Z,5.46
2023-03-04T12:38:15.362Z,5.49
2023-03-04T12:39:12.416Z,5.43
2023-03-04T12:40:12.419Z,5.44
2023-03-04T12:41:12.402Z,5.46
2023-03-04T12:42:12.501Z,5.44
2023-03-04T12:43:12.395Z,5.47
2023-03-04T12:44:12.388Z,5.47
2023-03-04T12:45:12.350Z,5.47
2023-03-04T12:46:12.543Z,5.7
2023-03-04T12:47:12.390Z,5.37
2023-03-04T12:48:12.406Z,5.38
2023-03-04T12:49:15.231Z,5.38
2023-03-04T12:50:12.405Z,5.49
2023-03-04T12:51:12.392Z,5.44
2023-03-04T12:52:12.522Z,5.47
2023-03-04T12:53:12.397Z,5.51
2023-03-04T12:54:12.397Z,5.12
2023-03-04T12:55:12.406Z,5.38
2023-03-04T12:56:14.931Z,5.36
2023-03-04T12:57:12.438Z,5.26
2023-03-04T12:58:12.479Z,5.38
2023-03-04T12:59:12.381Z,5.36
2023-03-04T13:00:13.517Z,5.4
2023-03-04T13:01:12.465Z,5.33
2023-03-04T13:02:12.571Z,5.19
2023-03-04T13:03:12.981Z,5.15
2023-03-04T13:04:12.458Z,5.18
2023-03-04T13:05:12.468Z,5.29
2023-03-04T13:06:12.401Z,5.37
2023-03-04T13:07:15.047Z,5.37
2023-03-04T13:08:12.392Z,5.25
2023-03-04T13:09:12.403Z,5.31
2023-03-04T13:10:12.408Z,5.16
2023-03-04T13:11:15.515Z,5.18
2023-03-04T13:12:12.479Z,5.12
2023-03-04T13:13:12.428Z,5.28
2023-03-04T13:14:12.576Z,5.37
2023-03-04T13:15:12.412Z,5.22
2023-03-04T13:16:12.705Z,5.29
2023-03-04T13:17:12.462Z,5.33
2023-03-04T13:18:12.462Z,5.19
2023-03-04T13:19:12.447Z,5.05
2023-03-04T13:20:12.455Z,5.29
2023-03-04T13:21:12.411Z,5.34
2023-03-04T13:22:15.795Z,5.22
2023-03-04T13:23:12.504Z,5.28